Taunsa Weather



Taunsa's Current Weather

Temprature 27.21o clear sky

clear sky

Rain: 0 %

Min Temprature27.21o
Max Temprature27.21o
Humidity65
Wind Speed5.21 m/h
Sun Rise06:07:42
Sun Set18:09:59
Current Time: 26-Sep-2022 08:17:15
Lat/Lon: 30.7048, 70.6505




Taunsa's Geo Location



Taunsa's Weather Forecast

Time Overall Temp Min Temp Max Temp Humidity Wind Speed Rain
26-Sep-2022 (Mon)
11:00:00 clear sky 28.650 28.650 31.520 59 4.55 m/h 0 %
14:00:00 clear sky 32.110 32.110 34.560 46 3.18 m/h 0 %
17:00:00 clear sky 34.770 34.770 34.770 35 2.52 m/h 0 %
20:00:00 light rain 32.190 32.190 32.190 41 2.17 m/h 28 %
23:00:00 clear sky 31.100 31.100 31.100 45 2.76 m/h 0 %
27-Sep-2022 (Tue)
02:00:00 clear sky 29.440 29.440 29.440 50 2.69 m/h 0 %
05:00:00 clear sky 27.930 27.930 27.930 53 1.34 m/h 0 %
08:00:00 clear sky 30.320 30.320 30.320 45 1.74 m/h 0 %
11:00:00 clear sky 34.910 34.910 34.910 33 2.74 m/h 0 %
14:00:00 clear sky 37.230 37.230 37.230 25 1.77 m/h 0 %
17:00:00 clear sky 37.400 37.400 37.400 23 1.36 m/h 0 %
20:00:00 clear sky 34.050 34.050 34.050 28 2.33 m/h 0 %
23:00:00 clear sky 31.980 31.980 31.980 30 2.42 m/h 0 %
28-Sep-2022 (Wed)
02:00:00 clear sky 30.570 30.570 30.570 33 1.56 m/h 0 %
05:00:00 clear sky 29.160 29.160 29.160 35 0.27 m/h 0 %
08:00:00 clear sky 31.880 31.880 31.880 31 1.89 m/h 0 %
11:00:00 clear sky 36.160 36.160 36.160 26 2.16 m/h 0 %
14:00:00 clear sky 38.340 38.340 38.340 19 0.97 m/h 0 %
17:00:00 clear sky 38.230 38.230 38.230 18 2.58 m/h 0 %
20:00:00 clear sky 33.590 33.590 33.590 27 5.7 m/h 0 %
23:00:00 clear sky 31.410 31.410 31.410 29 4.45 m/h 0 %
29-Sep-2022 (Thu)
02:00:00 clear sky 30.160 30.160 30.160 30 3.17 m/h 0 %
05:00:00 clear sky 29.170 29.170 29.170 34 2.3 m/h 0 %
08:00:00 clear sky 31.520 31.520 31.520 31 1.3 m/h 0 %
11:00:00 clear sky 36.120 36.120 36.120 23 1.75 m/h 0 %
14:00:00 clear sky 38.360 38.360 38.360 19 0.64 m/h 0 %
17:00:00 clear sky 37.820 37.820 37.820 19 4.21 m/h 0 %
20:00:00 clear sky 33.210 33.210 33.210 25 5.32 m/h 0 %
23:00:00 clear sky 30.980 30.980 30.980 27 4.68 m/h 0 %
30-Sep-2022 (Fri)
02:00:00 clear sky 29.680 29.680 29.680 31 3.48 m/h 0 %
05:00:00 clear sky 28.520 28.520 28.520 35 2.5 m/h 0 %
08:00:00 clear sky 31.470 31.470 31.470 31 1.34 m/h 0 %
11:00:00 clear sky 36.750 36.750 36.750 22 0.55 m/h 0 %
14:00:00 clear sky 38.990 38.990 38.990 18 1.77 m/h 0 %
17:00:00 clear sky 38.490 38.490 38.490 17 5.13 m/h 0 %
20:00:00 clear sky 33.520 33.520 33.520 28 5.63 m/h 0 %
23:00:00 clear sky 31.150 31.150 31.150 31 5.12 m/h 0 %
01-Oct-2022 (Sat)
02:00:00 clear sky 30.020 30.020 30.020 35 3.87 m/h 0 %
05:00:00 clear sky 28.790 28.790 28.790 37 2.39 m/h 0 %
08:00:00 clear sky 31.210 31.210 31.210 33 1.02 m/h 0 %

Famous Cities (61)